createdAt,value
2023-02-26T00:00:20.961Z,1006.71
2023-02-26T00:01:20.980Z,1006.75
2023-02-26T00:02:20.990Z,1006.74
2023-02-26T00:03:20.948Z,1006.75
2023-02-26T00:04:20.920Z,1006.74
2023-02-26T00:05:20.935Z,1006.78
2023-02-26T00:06:20.898Z,1006.82
2023-02-26T00:07:20.874Z,1006.80
2023-02-26T00:08:20.918Z,1006.82
2023-02-26T00:09:20.895Z,1006.85
2023-02-26T00:10:20.840Z,1006.85
2023-02-26T00:11:20.883Z,1006.86
2023-02-26T00:12:20.867Z,1006.88
2023-02-26T00:13:20.815Z,1006.90
2023-02-26T00:14:20.852Z,1006.92
2023-02-26T00:15:20.815Z,1006.95
2023-02-26T00:16:20.790Z,1006.94
2023-02-26T00:17:20.810Z,1006.94
2023-02-26T00:18:20.760Z,1006.97
2023-02-26T00:19:20.767Z,1006.99
2023-02-26T00:20:20.755Z,1007.00
2023-02-26T00:21:20.732Z,1007.03
2023-02-26T00:22:20.730Z,1007.03
2023-02-26T00:23:20.723Z,1007.03
2023-02-26T00:24:20.757Z,1007.03
2023-02-26T00:25:20.701Z,1007.06
2023-02-26T00:26:20.700Z,1007.03
2023-02-26T00:27:20.673Z,1007.06
2023-02-26T00:28:20.669Z,1007.07
2023-02-26T00:29:20.677Z,1007.07
2023-02-26T00:30:20.653Z,1007.10
2023-02-26T00:31:20.677Z,1007.17
2023-02-26T00:32:20.735Z,1007.12
2023-02-26T00:33:20.581Z,1007.16
2023-02-26T00:34:20.720Z,1007.17
2023-02-26T00:35:20.565Z,1007.19
2023-02-26T00:36:20.579Z,1007.21
2023-02-26T00:37:20.618Z,1007.22
2023-02-26T00:38:20.546Z,1007.17
2023-02-26T00:39:20.544Z,1007.19
2023-02-26T00:40:20.535Z,1007.20
2023-02-26T00:41:20.562Z,1007.21
2023-02-26T00:42:20.520Z,1007.21
2023-02-26T00:43:20.498Z,1007.23
2023-02-26T00:44:20.515Z,1007.24
2023-02-26T00:45:20.470Z,1007.30
2023-02-26T00:46:20.739Z,1007.28
2023-02-26T00:47:20.470Z,1007.31
2023-02-26T00:48:20.429Z,1007.35
2023-02-26T00:49:20.425Z,1007.33
2023-02-26T00:50:20.433Z,1007.34
2023-02-26T00:51:20.400Z,1007.36
2023-02-26T00:52:20.434Z,1007.42
2023-02-26T00:53:20.401Z,1007.42
2023-02-26T00:54:20.381Z,1007.41
2023-02-26T00:55:20.352Z,1007.40
2023-02-26T00:56:20.395Z,1007.39
2023-02-26T00:57:20.329Z,1007.43
2023-02-26T00:58:20.352Z,1007.47
2023-02-26T00:59:20.321Z,1007.47
2023-02-26T01:00:20.342Z,1007.44
2023-02-26T01:01:20.356Z,1007.46
2023-02-26T01:02:20.302Z,1007.47
2023-02-26T01:03:20.279Z,1007.47
2023-02-26T01:04:20.303Z,1007.49
2023-02-26T01:05:20.269Z,1007.48
2023-02-26T01:06:20.243Z,1007.48
2023-02-26T01:07:20.282Z,1007.50
2023-02-26T01:08:20.206Z,1007.50
2023-02-26T01:09:20.235Z,1007.51
2023-02-26T01:10:20.198Z,1007.54
2023-02-26T01:11:20.210Z,1007.55
2023-02-26T01:12:20.216Z,1007.55
2023-02-26T01:13:20.193Z,1007.55
2023-02-26T01:14:20.149Z,1007.56
2023-02-26T01:15:20.133Z,1007.54
2023-02-26T01:16:20.142Z,1007.58
2023-02-26T01:17:20.129Z,1007.60
2023-02-26T01:18:20.150Z,1007.61
2023-02-26T01:19:20.085Z,1007.63
2023-02-26T01:20:20.086Z,1007.68
2023-02-26T01:21:27.122Z,1007.65
2023-02-26T01:22:20.060Z,1007.68
2023-02-26T01:23:20.063Z,1007.69
2023-02-26T01:24:20.065Z,1007.69
2023-02-26T01:25:20.036Z,1007.71
2023-02-26T01:26:20.019Z,1007.72
2023-02-26T01:27:20.023Z,1007.71
2023-02-26T01:28:20.022Z,1007.70
2023-02-26T01:29:19.986Z,1007.69
2023-02-26T01:30:19.999Z,1007.71
2023-02-26T01:31:20.074Z,1007.73
2023-02-26T01:32:20.076Z,1007.77
2023-02-26T01:33:19.958Z,1007.76
2023-02-26T01:34:19.979Z,1007.76
2023-02-26T01:35:19.924Z,1007.74
2023-02-26T01:36:19.959Z,1007.76
2023-02-26T01:37:19.887Z,1007.82
2023-02-26T01:38:19.920Z,1007.80
2023-02-26T01:39:19.910Z,1007.82
2023-02-26T01:40:19.907Z,1007.79
2023-02-26T01:41:19.891Z,1007.86
2023-02-26T01:42:19.870Z,1007.81
2023-02-26T01:43:19.842Z,1007.84
2023-02-26T01:44:19.864Z,1007.86
2023-02-26T01:45:19.853Z,1007.85
2023-02-26T01:46:19.897Z,1007.86
2023-02-26T01:47:19.808Z,1007.90
2023-02-26T01:48:19.796Z,1007.91
2023-02-26T01:49:19.782Z,1007.92
2023-02-26T01:50:19.887Z,1007.91
2023-02-26T01:51:19.738Z,1007.88
2023-02-26T01:52:19.748Z,1007.96
2023-02-26T01:53:19.760Z,1007.95
2023-02-26T01:54:20.831Z,1007.95
2023-02-26T01:55:19.709Z,1007.97
2023-02-26T01:56:19.717Z,1007.93
2023-02-26T01:57:19.693Z,1007.97
2023-02-26T01:58:19.691Z,1008.00
2023-02-26T01:59:19.672Z,1008.04
2023-02-26T02:00:19.668Z,1008.11
2023-02-26T02:01:19.746Z,1008.10
2023-02-26T02:02:20.392Z,1008.11
2023-02-26T02:03:19.713Z,1008.16
2023-02-26T02:04:19.623Z,1008.11
2023-02-26T02:05:19.637Z,1008.10
2023-02-26T02:06:19.648Z,1008.16
2023-02-26T02:07:19.588Z,1008.14
2023-02-26T02:08:19.560Z,1008.16
2023-02-26T02:09:19.569Z,1008.21
2023-02-26T02:10:19.554Z,1008.21
2023-02-26T02:11:19.542Z,1008.22
2023-02-26T02:12:19.521Z,1008.23
2023-02-26T02:13:19.520Z,1008.24
2023-02-26T02:14:19.505Z,1008.22
2023-02-26T02:15:19.505Z,1008.23
2023-02-26T02:16:19.587Z,1008.25
2023-02-26T02:17:19.461Z,1008.30
2023-02-26T02:18:19.500Z,1008.31
2023-02-26T02:19:19.433Z,1008.30
2023-02-26T02:20:19.431Z,1008.28
2023-02-26T02:21:19.431Z,1008.31
2023-02-26T02:22:19.434Z,1008.31
2023-02-26T02:23:19.402Z,1008.32
2023-02-26T02:24:19.381Z,1008.34
2023-02-26T02:25:19.383Z,1008.37
2023-02-26T02:26:19.363Z,1008.37
2023-02-26T02:27:19.359Z,1008.38
2023-02-26T02:28:19.353Z,1008.35
2023-02-26T02:29:19.339Z,1008.40
2023-02-26T02:30:19.328Z,1008.41
2023-02-26T02:31:19.412Z,1008.40
2023-02-26T02:32:19.423Z,1008.42
2023-02-26T02:33:19.305Z,1008.40
2023-02-26T02:34:19.289Z,1008.44
2023-02-26T02:35:19.272Z,1008.47
2023-02-26T02:36:19.312Z,1008.46
2023-02-26T02:37:19.243Z,1008.45
2023-02-26T02:38:19.228Z,1008.42
2023-02-26T02:39:19.236Z,1008.48
2023-02-26T02:40:19.218Z,1008.47
2023-02-26T02:41:19.187Z,1008.51
2023-02-26T02:42:19.195Z,1008.53
2023-02-26T02:43:19.182Z,1008.56
2023-02-26T02:44:19.169Z,1008.57
2023-02-26T02:45:19.177Z,1008.58
2023-02-26T02:46:19.249Z,1008.57
2023-02-26T02:47:19.130Z,1008.59
2023-02-26T02:48:19.127Z,1008.63
2023-02-26T02:49:19.124Z,1008.62
2023-02-26T02:50:19.108Z,1008.63
2023-02-26T02:51:19.100Z,1008.67
2023-02-26T02:52:19.100Z,1008.65
2023-02-26T02:53:19.060Z,1008.66
2023-02-26T02:54:19.082Z,1008.68
2023-02-26T02:55:19.084Z,1008.70
2023-02-26T02:56:19.109Z,1008.73
2023-02-26T02:57:19.017Z,1008.70
2023-02-26T02:58:19.042Z,1008.71
2023-02-26T02:59:19.015Z,1008.74
2023-02-26T03:00:19.001Z,1008.76
2023-02-26T03:01:19.057Z,1008.75
2023-02-26T03:02:19.024Z,1008.76
2023-02-26T03:03:18.954Z,1008.76
2023-02-26T03:04:18.955Z,1008.81
2023-02-26T03:05:18.942Z,1008.82
2023-02-26T03:06:18.942Z,1008.83
2023-02-26T03:07:18.935Z,1008.85
2023-02-26T03:08:18.958Z,1008.84
2023-02-26T03:09:18.900Z,1008.84
2023-02-26T03:10:18.892Z,1008.91
2023-02-26T03:11:18.870Z,1008.92
2023-02-26T03:12:18.871Z,1008.96
2023-02-26T03:13:18.858Z,1008.93
2023-02-26T03:14:18.867Z,1008.99
2023-02-26T03:15:18.880Z,1009.00
2023-02-26T03:16:18.873Z,1008.98
2023-02-26T03:17:18.822Z,1008.98
2023-02-26T03:18:18.800Z,1008.97
2023-02-26T03:19:18.830Z,1009.00
2023-02-26T03:20:18.780Z,1008.99
2023-02-26T03:21:18.794Z,1009.00
2023-02-26T03:22:18.777Z,1009.02
2023-02-26T03:23:18.748Z,1009.04
2023-02-26T03:24:18.746Z,1009.03
2023-02-26T03:25:18.735Z,1009.04
2023-02-26T03:26:18.729Z,1009.08
2023-02-26T03:27:18.705Z,1009.05
2023-02-26T03:28:18.709Z,1009.05
2023-02-26T03:29:18.670Z,1009.03
2023-02-26T03:30:18.695Z,1009.06
2023-02-26T03:31:18.736Z,1009.10
2023-02-26T03:32:18.801Z,1009.10
2023-02-26T03:33:18.657Z,1009.13
2023-02-26T03:34:18.640Z,1009.19
2023-02-26T03:35:18.634Z,1009.21
2023-02-26T03:36:18.613Z,1009.26
2023-02-26T03:37:18.597Z,1009.26
2023-02-26T03:38:18.628Z,1009.26
2023-02-26T03:39:18.583Z,1009.29
2023-02-26T03:40:18.562Z,1009.31
2023-02-26T03:41:18.610Z,1009.29
2023-02-26T03:42:18.558Z,1009.37
2023-02-26T03:43:18.530Z,1009.32
2023-02-26T03:44:18.542Z,1009.36
2023-02-26T03:45:18.501Z,1009.37
2023-02-26T03:46:18.617Z,1009.45
2023-02-26T03:47:18.515Z,1009.50
2023-02-26T03:48:18.483Z,1009.48
2023-02-26T03:49:18.503Z,1009.50
2023-02-26T03:50:18.462Z,1009.50
2023-02-26T03:51:18.509Z,1009.54
2023-02-26T03:52:18.441Z,1009.52
2023-02-26T03:53:18.424Z,1009.55
2023-02-26T03:54:18.442Z,1009.57
2023-02-26T03:55:18.402Z,1009.59
2023-02-26T03:56:18.402Z,1009.62
2023-02-26T03:57:18.414Z,1009.65
2023-02-26T03:58:18.385Z,1009.67
2023-02-26T03:59:18.351Z,1009.69
2023-02-26T04:00:18.359Z,1009.67
2023-02-26T04:01:18.422Z,1009.68
2023-02-26T04:02:18.378Z,1009.65
2023-02-26T04:03:18.316Z,1009.65
2023-02-26T04:04:18.355Z,1009.68
2023-02-26T04:05:18.290Z,1009.70
2023-02-26T04:06:18.300Z,1009.68
2023-02-26T04:07:18.309Z,1009.71
2023-02-26T04:08:18.258Z,1009.72
2023-02-26T04:09:18.251Z,1009.73
2023-02-26T04:10:18.233Z,1009.74
2023-02-26T04:11:18.212Z,1009.72
2023-02-26T04:12:18.230Z,1009.75
2023-02-26T04:13:18.214Z,1009.73
2023-02-26T04:14:18.211Z,1009.79
2023-02-26T04:15:18.207Z,1009.75
2023-02-26T04:16:18.211Z,1009.81
2023-02-26T04:17:18.855Z,1009.82
2023-02-26T04:18:18.158Z,1009.82
2023-02-26T04:19:18.137Z,1009.84
2023-02-26T04:20:18.142Z,1009.86
2023-02-26T04:21:18.130Z,1009.87
2023-02-26T04:22:18.113Z,1009.89
2023-02-26T04:23:18.089Z,1009.87
2023-02-26T04:24:18.088Z,1009.86
2023-02-26T04:25:18.078Z,1009.88
2023-02-26T04:26:18.071Z,1009.89
2023-02-26T04:27:18.061Z,1009.95
2023-02-26T04:28:18.032Z,1009.95
2023-02-26T04:29:18.024Z,1009.93
2023-02-26T04:30:18.064Z,1009.95
2023-02-26T04:31:18.083Z,1009.96
2023-02-26T04:32:18.006Z,1009.95
2023-02-26T04:33:17.981Z,1009.97
2023-02-26T04:34:17.961Z,1010.00
2023-02-26T04:35:17.986Z,1009.99
2023-02-26T04:36:17.954Z,1010.05
2023-02-26T04:37:17.932Z,1010.05
2023-02-26T04:38:17.946Z,1010.05
2023-02-26T04:39:17.912Z,1010.08
2023-02-26T04:40:17.908Z,1010.06
2023-02-26T04:41:17.918Z,1010.11
2023-02-26T04:42:19.032Z,1010.09
2023-02-26T04:43:18.582Z,1010.12
2023-02-26T04:44:17.941Z,1010.13
2023-02-26T04:45:17.909Z,1010.15
2023-02-26T04:46:17.888Z,1010.15
2023-02-26T04:47:18.000Z,1010.23
2023-02-26T04:48:17.887Z,1010.24
2023-02-26T04:49:17.831Z,1010.20
2023-02-26T04:50:17.897Z,1010.29
2023-02-26T04:51:17.798Z,1010.27
2023-02-26T04:52:17.871Z,1010.27
2023-02-26T04:53:17.871Z,1010.26
2023-02-26T04:54:17.761Z,1010.33
2023-02-26T04:55:17.762Z,1010.31
2023-02-26T04:56:17.730Z,1010.37
2023-02-26T04:57:17.779Z,1010.39
2023-02-26T04:58:17.920Z,1010.37
2023-02-26T04:59:17.711Z,1010.36
2023-02-26T05:00:17.837Z,1010.42
2023-02-26T05:01:17.710Z,1010.42
2023-02-26T05:02:17.692Z,1010.43
2023-02-26T05:03:17.670Z,1010.45
2023-02-26T05:04:17.869Z,1010.46
2023-02-26T05:05:17.735Z,1010.47
2023-02-26T05:06:17.652Z,1010.48
2023-02-26T05:07:17.787Z,1010.51
2023-02-26T05:08:18.365Z,1010.55
2023-02-26T05:09:17.614Z,1010.53
2023-02-26T05:10:17.856Z,1010.49
2023-02-26T05:11:17.667Z,1010.52
2023-02-26T05:12:18.491Z,1010.51
2023-02-26T05:13:17.704Z,1010.50
2023-02-26T05:14:17.542Z,1010.54
2023-02-26T05:15:17.629Z,1010.57
2023-02-26T05:16:17.586Z,1010.51
2023-02-26T05:17:17.511Z,1010.55
2023-02-26T05:18:17.607Z,1010.50
2023-02-26T05:19:17.503Z,1010.57
2023-02-26T05:20:17.506Z,1010.61
2023-02-26T05:21:17.472Z,1010.66
2023-02-26T05:22:17.587Z,1010.62
2023-02-26T05:23:17.554Z,1010.68
2023-02-26T05:24:17.547Z,1010.70
2023-02-26T05:25:17.669Z,1010.70
2023-02-26T05:26:17.400Z,1010.71
2023-02-26T05:27:17.575Z,1010.70
2023-02-26T05:28:17.410Z,1010.79
2023-02-26T05:29:17.408Z,1010.73
2023-02-26T05:30:17.483Z,1010.81
2023-02-26T05:31:17.466Z,1010.77
2023-02-26T05:32:17.591Z,1010.82
2023-02-26T05:33:17.357Z,1010.84
2023-02-26T05:34:17.525Z,1010.84
2023-02-26T05:35:17.383Z,1010.81
2023-02-26T05:36:17.302Z,1010.85
2023-02-26T05:37:17.503Z,1010.84
2023-02-26T05:38:17.474Z,1010.86
2023-02-26T05:39:17.379Z,1010.83
2023-02-26T05:40:17.365Z,1010.86
2023-02-26T05:41:17.265Z,1010.85
2023-02-26T05:42:17.308Z,1010.87
2023-02-26T05:43:17.365Z,1010.91
2023-02-26T05:44:17.464Z,1010.93
2023-02-26T05:45:17.232Z,1010.96
2023-02-26T05:46:17.294Z,1010.98
2023-02-26T05:47:17.229Z,1010.99
2023-02-26T05:48:17.182Z,1011.01
2023-02-26T05:49:17.308Z,1011.06
2023-02-26T05:50:17.186Z,1011.04
2023-02-26T05:51:17.294Z,1011.17
2023-02-26T05:52:17.228Z,1011.14
2023-02-26T05:53:17.232Z,1011.23
2023-02-26T05:54:17.250Z,1011.12
2023-02-26T05:55:17.136Z,1011.20
2023-02-26T05:56:17.990Z,1011.23
2023-02-26T05:57:17.102Z,1011.24
2023-02-26T05:58:17.197Z,1011.28
2023-02-26T05:59:17.085Z,1011.24
2023-02-26T06:00:17.080Z,1011.27
2023-02-26T06:01:17.154Z,1011.32
2023-02-26T06:02:17.133Z,1011.35
2023-02-26T06:03:17.162Z,1011.36
2023-02-26T06:04:17.063Z,1011.38
2023-02-26T06:05:17.017Z,1011.38
2023-02-26T06:06:16.964Z,1011.43
2023-02-26T06:07:17.156Z,1011.42
2023-02-26T06:08:17.072Z,1011.43
2023-02-26T06:09:17.060Z,1011.44
2023-02-26T06:10:17.029Z,1011.44
2023-02-26T06:11:17.222Z,1011.50
2023-02-26T06:12:16.941Z,1011.49
2023-02-26T06:13:17.170Z,1011.50
2023-02-26T06:14:17.054Z,1011.50
2023-02-26T06:15:17.385Z,1011.45
2023-02-26T06:16:16.930Z,1011.53
2023-02-26T06:17:16.953Z,1011.52
2023-02-26T06:18:17.124Z,1011.57
2023-02-26T06:19:16.858Z,1011.62
2023-02-26T06:20:16.811Z,1011.56
2023-02-26T06:21:16.835Z,1011.66
2023-02-26T06:22:16.814Z,1011.64
2023-02-26T06:23:16.784Z,1011.67
2023-02-26T06:24:16.781Z,1011.72
2023-02-26T06:25:16.782Z,1011.73
2023-02-26T06:26:16.775Z,1011.72
2023-02-26T06:27:16.764Z,1011.74
2023-02-26T06:28:16.760Z,1011.72
2023-02-26T06:29:16.760Z,1011.72
2023-02-26T06:30:16.743Z,1011.75
2023-02-26T06:31:16.748Z,1011.74
2023-02-26T06:32:16.905Z,1011.79
2023-02-26T06:33:16.688Z,1011.83
2023-02-26T06:34:16.690Z,1011.84
2023-02-26T06:35:16.683Z,1011.83
2023-02-26T06:36:16.668Z,1011.88
2023-02-26T06:37:16.665Z,1011.89
2023-02-26T06:38:16.670Z,1011.88
2023-02-26T06:39:16.646Z,1011.92
2023-02-26T06:40:16.627Z,1011.92
2023-02-26T06:41:16.612Z,1011.95
2023-02-26T06:42:18.440Z,1011.93
2023-02-26T06:43:16.577Z,1011.91
2023-02-26T06:44:16.559Z,1011.88
2023-02-26T06:45:16.565Z,1011.92
2023-02-26T06:46:16.582Z,1011.93
2023-02-26T06:47:16.535Z,1011.96
2023-02-26T06:48:16.530Z,1012.02
2023-02-26T06:49:16.520Z,1012.05
2023-02-26T06:50:16.505Z,1012.06
2023-02-26T06:51:16.532Z,1012.05
2023-02-26T06:52:16.492Z,1012.09
2023-02-26T06:53:16.503Z,1012.12
2023-02-26T06:54:16.454Z,1012.11
2023-02-26T06:55:16.561Z,1012.13
2023-02-26T06:56:16.447Z,1012.15
2023-02-26T06:57:16.475Z,1012.17
2023-02-26T06:58:16.447Z,1012.15
2023-02-26T06:59:16.531Z,1012.23
2023-02-26T07:00:16.425Z,1012.26
2023-02-26T07:01:16.489Z,1012.29
2023-02-26T07:02:16.412Z,1012.29
2023-02-26T07:03:16.373Z,1012.30
2023-02-26T07:04:16.386Z,1012.32
2023-02-26T07:05:16.368Z,1012.37
2023-02-26T07:06:26.810Z,1012.38
2023-02-26T07:07:17.342Z,1012.44
2023-02-26T07:08:16.318Z,1012.42
2023-02-26T07:09:16.323Z,1012.44
2023-02-26T07:10:16.309Z,1012.44
2023-02-26T07:11:16.279Z,1012.48
2023-02-26T07:12:16.315Z,1012.52
2023-02-26T07:13:16.313Z,1012.51
2023-02-26T07:14:16.280Z,1012.51
2023-02-26T07:15:16.275Z,1012.51
2023-02-26T07:16:16.244Z,1012.54
2023-02-26T07:17:16.236Z,1012.55
2023-02-26T07:18:16.279Z,1012.56
2023-02-26T07:19:16.489Z,1012.62
2023-02-26T07:20:16.202Z,1012.63
2023-02-26T07:21:23.173Z,1012.66
2023-02-26T07:22:16.176Z,1012.70
2023-02-26T07:23:16.205Z,1012.71
2023-02-26T07:24:16.142Z,1012.72
2023-02-26T07:25:16.133Z,1012.70
2023-02-26T07:26:16.117Z,1012.72
2023-02-26T07:27:16.101Z,1012.79
2023-02-26T07:28:16.113Z,1012.78
2023-02-26T07:29:16.080Z,1012.76
2023-02-26T07:30:16.086Z,1012.77
2023-02-26T07:31:16.132Z,1012.82
2023-02-26T07:32:16.058Z,1012.84
2023-02-26T07:33:16.080Z,1012.85
2023-02-26T07:34:16.049Z,1012.87
2023-02-26T07:35:16.024Z,1012.87
2023-02-26T07:36:15.998Z,1012.86
2023-02-26T07:37:16.010Z,1012.88
2023-02-26T07:38:17.554Z,1012.90
2023-02-26T07:39:15.968Z,1012.92
2023-02-26T07:40:15.975Z,1012.94
2023-02-26T07:41:15.965Z,1012.91
2023-02-26T07:42:15.949Z,1012.97
2023-02-26T07:43:15.952Z,1012.98
2023-02-26T07:44:15.939Z,1012.96
2023-02-26T07:45:15.917Z,1013.04
2023-02-26T07:46:15.985Z,1013.04
2023-02-26T07:47:15.891Z,1013.05
2023-02-26T07:48:17.631Z,1013.07
2023-02-26T07:49:15.875Z,1013.10
2023-02-26T07:50:15.849Z,1013.07
2023-02-26T07:51:15.858Z,1013.10
2023-02-26T07:52:15.831Z,1013.05
2023-02-26T07:53:15.827Z,1013.08
2023-02-26T07:54:15.825Z,1013.16
2023-02-26T07:55:15.810Z,1013.18
2023-02-26T07:56:15.789Z,1013.11
2023-02-26T07:57:15.787Z,1013.16
2023-02-26T07:58:15.754Z,1013.14
2023-02-26T07:59:15.752Z,1013.16
2023-02-26T08:00:15.752Z,1013.17
2023-02-26T08:01:15.774Z,1013.23
2023-02-26T08:02:15.724Z,1013.20
2023-02-26T08:03:15.739Z,1013.23
2023-02-26T08:04:15.763Z,1013.23
2023-02-26T08:05:15.703Z,1013.22
2023-02-26T08:06:15.685Z,1013.23
2023-02-26T08:07:15.696Z,1013.24
2023-02-26T08:08:15.665Z,1013.25
2023-02-26T08:09:15.655Z,1013.27
2023-02-26T08:10:15.652Z,1013.28
2023-02-26T08:11:15.641Z,1013.24
2023-02-26T08:12:15.638Z,1013.28
2023-02-26T08:13:15.616Z,1013.29
2023-02-26T08:14:15.595Z,1013.35
2023-02-26T08:15:15.595Z,1013.36
2023-02-26T08:16:15.662Z,1013.39
2023-02-26T08:17:15.570Z,1013.41
2023-02-26T08:18:15.541Z,1013.42
2023-02-26T08:19:15.542Z,1013.46
2023-02-26T08:20:15.529Z,1013.44
2023-02-26T08:21:15.523Z,1013.48
2023-02-26T08:22:15.503Z,1013.47
2023-02-26T08:23:15.510Z,1013.47
2023-02-26T08:24:15.513Z,1013.47
2023-02-26T08:25:15.460Z,1013.56
2023-02-26T08:26:15.449Z,1013.55
2023-02-26T08:27:15.440Z,1013.59
2023-02-26T08:28:15.422Z,1013.58
2023-02-26T08:29:15.466Z,1013.59
2023-02-26T08:30:15.443Z,1013.60
2023-02-26T08:31:15.604Z,1013.60
2023-02-26T08:32:15.551Z,1013.65
2023-02-26T08:33:15.412Z,1013.65
2023-02-26T08:34:15.377Z,1013.66
2023-02-26T08:35:15.382Z,1013.68
2023-02-26T08:36:15.369Z,1013.71
2023-02-26T08:37:15.338Z,1013.67
2023-02-26T08:38:15.340Z,1013.77
2023-02-26T08:39:15.364Z,1013.76
2023-02-26T08:40:15.421Z,1013.77
2023-02-26T08:41:15.306Z,1013.82
2023-02-26T08:42:15.304Z,1013.86
2023-02-26T08:43:15.270Z,1013.75
2023-02-26T08:44:15.259Z,1013.82
2023-02-26T08:45:15.247Z,1013.80
2023-02-26T08:46:15.320Z,1013.81
2023-02-26T08:47:24.508Z,1013.83
2023-02-26T08:48:16.249Z,1013.84
2023-02-26T08:49:15.210Z,1013.83
2023-02-26T08:50:15.246Z,1013.85
2023-02-26T08:51:15.195Z,1013.87
2023-02-26T08:52:15.196Z,1013.84
2023-02-26T08:53:15.161Z,1013.90
2023-02-26T08:54:15.155Z,1013.89
2023-02-26T08:55:15.166Z,1013.87
2023-02-26T08:56:15.158Z,1013.97
2023-02-26T08:57:15.132Z,1013.92
2023-02-26T08:58:15.131Z,1013.99
2023-02-26T08:59:15.120Z,1013.98
2023-02-26T09:00:15.109Z,1013.98
2023-02-26T09:01:15.093Z,1014.00
2023-02-26T09:02:15.150Z,1014.07
2023-02-26T09:03:15.157Z,1013.99
2023-02-26T09:04:15.072Z,1014.07
2023-02-26T09:05:15.072Z,1014.02
2023-02-26T09:06:15.028Z,1014.05
2023-02-26T09:07:15.016Z,1014.10
2023-02-26T09:08:15.022Z,1014.09
2023-02-26T09:09:14.994Z,1014.06
2023-02-26T09:10:15.008Z,1014.12
2023-02-26T09:11:14.968Z,1014.12
2023-02-26T09:12:14.980Z,1014.13
2023-02-26T09:13:14.962Z,1014.11
2023-02-26T09:14:14.971Z,1014.16
2023-02-26T09:15:14.942Z,1014.15
2023-02-26T09:16:14.980Z,1014.16
2023-02-26T09:17:14.909Z,1014.17
2023-02-26T09:18:14.899Z,1014.21
2023-02-26T09:19:14.896Z,1014.22
2023-02-26T09:20:14.879Z,1014.26
2023-02-26T09:21:14.878Z,1014.24
2023-02-26T09:22:14.870Z,1014.21
2023-02-26T09:23:14.868Z,1014.23
2023-02-26T09:24:14.840Z,1014.26
2023-02-26T09:25:14.835Z,1014.29
2023-02-26T09:30:13.843Z,1014.37
2023-02-26T09:31:13.902Z,1014.38
2023-02-26T09:32:13.917Z,1014.40
2023-02-26T09:33:13.793Z,1014.42
2023-02-26T09:34:13.777Z,1014.44
2023-02-26T09:35:13.821Z,1014.46
2023-02-26T09:36:13.763Z,1014.43
2023-02-26T09:37:13.762Z,1014.46
2023-02-26T09:38:13.738Z,1014.49
2023-02-26T09:39:13.723Z,1014.52
2023-02-26T09:40:13.745Z,1014.60
2023-02-26T09:41:13.722Z,1014.57
2023-02-26T09:42:13.698Z,1014.61
2023-02-26T09:43:13.699Z,1014.63
2023-02-26T09:44:13.664Z,1014.65
2023-02-26T09:45:13.664Z,1014.63
2023-02-26T09:46:13.700Z,1014.63
2023-02-26T09:47:13.640Z,1014.72
2023-02-26T09:48:13.622Z,1014.67
2023-02-26T09:49:13.633Z,1014.66
2023-02-26T09:50:13.629Z,1014.65
2023-02-26T09:51:13.609Z,1014.70
2023-02-26T09:52:13.589Z,1014.73
2023-02-26T09:53:13.596Z,1014.67
2023-02-26T09:54:13.599Z,1014.75
2023-02-26T09:55:13.542Z,1014.73
2023-02-26T09:56:13.550Z,1014.72
2023-02-26T09:57:13.557Z,1014.72
2023-02-26T09:58:13.535Z,1014.70
2023-02-26T09:59:13.520Z,1014.78
2023-02-26T10:00:13.505Z,1014.77
2023-02-26T10:01:13.514Z,1014.82
2023-02-26T10:02:13.545Z,1014.87
2023-02-26T10:03:13.470Z,1014.86
2023-02-26T10:04:13.528Z,1014.82
2023-02-26T10:05:13.476Z,1014.85
2023-02-26T10:06:13.511Z,1014.88
2023-02-26T10:07:13.434Z,1014.94
2023-02-26T10:08:13.432Z,1014.92
2023-02-26T10:09:13.438Z,1014.95
2023-02-26T10:10:13.447Z,1014.97
2023-02-26T10:11:13.417Z,1014.96
2023-02-26T10:12:13.420Z,1014.98
2023-02-26T10:13:13.383Z,1014.98
2023-02-26T10:14:13.417Z,1015.03
2023-02-26T10:15:13.481Z,1015.10
2023-02-26T10:16:13.397Z,1015.03
2023-02-26T10:17:13.329Z,1015.13
2023-02-26T10:18:13.304Z,1015.11
2023-02-26T10:19:13.328Z,1015.08
2023-02-26T10:20:13.348Z,1015.10
2023-02-26T10:21:13.288Z,1015.08
2023-02-26T10:22:13.267Z,1015.09
2023-02-26T10:23:13.288Z,1015.12
2023-02-26T10:24:13.277Z,1015.16
2023-02-26T10:25:13.249Z,1015.13
2023-02-26T10:26:13.250Z,1015.16
2023-02-26T10:27:13.227Z,1015.13
2023-02-26T10:28:13.213Z,1015.15
2023-02-26T10:29:13.203Z,1015.22
2023-02-26T10:30:13.178Z,1015.19
2023-02-26T10:31:13.196Z,1015.19
2023-02-26T10:32:13.243Z,1015.25
2023-02-26T10:33:13.141Z,1015.30
2023-02-26T10:34:13.140Z,1015.33
2023-02-26T10:35:13.124Z,1015.29
2023-02-26T10:36:13.089Z,1015.31
2023-02-26T10:37:13.110Z,1015.31
2023-02-26T10:38:13.090Z,1015.32
2023-02-26T10:39:13.084Z,1015.40
2023-02-26T10:40:13.048Z,1015.37
2023-02-26T10:41:13.045Z,1015.49
2023-02-26T10:42:13.085Z,1015.41
2023-02-26T10:43:13.050Z,1015.36
2023-02-26T10:44:13.019Z,1015.43
2023-02-26T10:45:12.995Z,1015.47
2023-02-26T10:46:13.040Z,1015.49
2023-02-26T10:47:12.996Z,1015.45
2023-02-26T10:48:12.987Z,1015.45
2023-02-26T10:49:12.968Z,1015.46
2023-02-26T10:50:12.963Z,1015.48
2023-02-26T10:51:12.958Z,1015.46
2023-02-26T10:52:12.927Z,1015.47
2023-02-26T10:53:12.935Z,1015.50
2023-02-26T10:54:12.919Z,1015.56
2023-02-26T10:55:12.912Z,1015.59
2023-02-26T10:56:12.911Z,1015.56
2023-02-26T10:57:12.892Z,1015.59
2023-02-26T10:58:12.890Z,1015.61
2023-02-26T10:59:12.854Z,1015.57
2023-02-26T11:00:12.836Z,1015.55
2023-02-26T11:01:12.869Z,1015.58
2023-02-26T11:02:12.863Z,1015.59
2023-02-26T11:03:12.816Z,1015.64
2023-02-26T11:04:12.845Z,1015.63
2023-02-26T11:05:12.809Z,1015.63
2023-02-26T11:06:12.762Z,1015.58
2023-02-26T11:07:12.780Z,1015.64
2023-02-26T11:08:12.778Z,1015.63
2023-02-26T11:09:12.749Z,1015.60
2023-02-26T11:10:12.736Z,1015.62
2023-02-26T11:11:12.725Z,1015.57
2023-02-26T11:12:12.773Z,1015.61
2023-02-26T11:13:12.732Z,1015.66
2023-02-26T11:14:12.703Z,1015.62
2023-02-26T11:15:12.710Z,1015.62
2023-02-26T11:16:12.682Z,1015.65
2023-02-26T11:17:12.709Z,1015.72
2023-02-26T11:18:12.664Z,1015.67
2023-02-26T11:19:12.645Z,1015.70
2023-02-26T11:20:12.670Z,1015.71
2023-02-26T11:21:12.647Z,1015.75
2023-02-26T11:22:12.621Z,1015.73
2023-02-26T11:23:12.601Z,1015.68
2023-02-26T11:24:12.622Z,1015.69
2023-02-26T11:25:12.576Z,1015.67
2023-02-26T11:26:12.598Z,1015.71
2023-02-26T11:27:12.568Z,1015.69
2023-02-26T11:28:12.541Z,1015.71
2023-02-26T11:29:12.555Z,1015.70
2023-02-26T11:30:12.530Z,1015.69
2023-02-26T11:31:12.585Z,1015.73
2023-02-26T11:32:12.622Z,1015.76
2023-02-26T11:33:12.503Z,1015.74
2023-02-26T11:34:12.544Z,1015.75
2023-02-26T11:35:12.486Z,1015.80
2023-02-26T11:36:12.449Z,1015.83
2023-02-26T11:37:12.496Z,1015.82
2023-02-26T11:38:12.475Z,1015.88
2023-02-26T11:39:12.417Z,1015.85
2023-02-26T11:40:12.410Z,1015.84
2023-02-26T11:41:12.429Z,1015.90
2023-02-26T11:42:12.388Z,1015.92
2023-02-26T11:43:12.396Z,1015.91
2023-02-26T11:44:12.368Z,1015.95
2023-02-26T11:45:12.354Z,1015.94
2023-02-26T11:46:12.395Z,1015.99
2023-02-26T11:47:12.424Z,1015.99
2023-02-26T11:48:12.328Z,1015.96
2023-02-26T11:49:12.334Z,1015.98
2023-02-26T11:50:12.296Z,1015.98
2023-02-26T11:51:12.310Z,1015.95
2023-02-26T11:52:12.284Z,1016.00
2023-02-26T11:53:12.263Z,1015.93
2023-02-26T11:54:12.252Z,1015.96
2023-02-26T11:55:12.255Z,1015.98
2023-02-26T11:56:12.261Z,1016.01
2023-02-26T11:57:12.235Z,1015.98
2023-02-26T11:58:12.236Z,1016.03
2023-02-26T11:59:12.207Z,1015.98
2023-02-26T12:00:12.192Z,1016.00
2023-02-26T12:01:12.230Z,1015.99
2023-02-26T12:02:12.199Z,1016.03
2023-02-26T12:03:12.162Z,1016.02
2023-02-26T12:04:12.167Z,1016.01
2023-02-26T12:05:12.159Z,1016.02
2023-02-26T12:06:12.121Z,1015.99
2023-02-26T12:07:12.118Z,1015.99
2023-02-26T12:08:12.102Z,1016.00
2023-02-26T12:09:12.110Z,1015.95